sensor_id;sensor_type;location;lat;lon;timestamp;pressure;altitude;pressure_sealevel;temperature;humidity
4012;BME280;2020;48.682;9.024;2023-06-26T00:01:41;96409.53;;;20.33;51.49
4012;BME280;2020;48.682;9.024;2023-06-26T00:04:08;96413.63;;;20.29;51.81
4012;BME280;2020;48.682;9.024;2023-06-26T00:06:33;96417.88;;;20.11;52.10
4012;BME280;2020;48.682;9.024;2023-06-26T00:08:58;96417.34;;;20.02;52.82
4012;BME280;2020;48.682;9.024;2023-06-26T00:11:24;96418.97;;;20.04;52.46
4012;BME280;2020;48.682;9.024;2023-06-26T00:13:50;96414.25;;;19.80;53.33
4012;BME280;2020;48.682;9.024;2023-06-26T00:16:15;96421.56;;;19.78;53.40
4012;BME280;2020;48.682;9.024;2023-06-26T00:18:40;96417.25;;;19.84;53.40
4012;BME280;2020;48.682;9.024;2023-06-26T00:21:06;96418.84;;;19.92;53.25
4012;BME280;2020;48.682;9.024;2023-06-26T00:23:31;96422.69;;;19.64;53.74
4012;BME280;2020;48.682;9.024;2023-06-26T00:25:58;96427.13;;;19.70;53.79
4012;BME280;2020;48.682;9.024;2023-06-26T00:28:23;96420.56;;;19.79;53.37
4012;BME280;2020;48.682;9.024;2023-06-26T00:30:48;96424.16;;;19.85;53.37
4012;BME280;2020;48.682;9.024;2023-06-26T00:33:13;96424.06;;;19.73;53.40
4012;BME280;2020;48.682;9.024;2023-06-26T00:35:39;96417.75;;;19.74;54.39
4012;BME280;2020;48.682;9.024;2023-06-26T00:38:04;96419.03;;;19.65;54.10
4012;BME280;2020;48.682;9.024;2023-06-26T00:40:29;96419.66;;;19.35;55.26
4012;BME280;2020;48.682;9.024;2023-06-26T00:42:55;96419.66;;;19.28;55.25
4012;BME280;2020;48.682;9.024;2023-06-26T00:45:20;96426.53;;;19.36;55.01
4012;BME280;2020;48.682;9.024;2023-06-26T00:47:45;96424.16;;;19.27;55.11
4012;BME280;2020;48.682;9.024;2023-06-26T00:50:11;96425.72;;;19.35;55.06
4012;BME280;2020;48.682;9.024;2023-06-26T00:52:37;96419.69;;;19.21;55.80
4012;BME280;2020;48.682;9.024;2023-06-26T00:55:02;96419.31;;;19.24;55.11
4012;BME280;2020;48.682;9.024;2023-06-26T00:57:30;96415.69;;;19.12;56.42
4012;BME280;2020;48.682;9.024;2023-06-26T00:59:55;96419.75;;;19.14;55.98
4012;BME280;2020;48.682;9.024;2023-06-26T01:02:20;96411.66;;;19.09;56.63
4012;BME280;2020;48.682;9.024;2023-06-26T01:04:48;96410.84;;;19.09;56.59
4012;BME280;2020;48.682;9.024;2023-06-26T01:07:14;96412.78;;;19.20;55.30
4012;BME280;2020;48.682;9.024;2023-06-26T01:09:40;96419.34;;;19.11;55.99
4012;BME280;2020;48.682;9.024;2023-06-26T01:12:06;96412.03;;;19.13;56.14
4012;BME280;2020;48.682;9.024;2023-06-26T01:14:31;96412.13;;;18.93;56.90
4012;BME280;2020;48.682;9.024;2023-06-26T01:16:58;96412.13;;;18.86;57.29
4012;BME280;2020;48.682;9.024;2023-06-26T01:19:28;96410.06;;;18.95;56.74
4012;BME280;2020;48.682;9.024;2023-06-26T01:22:08;96408.56;;;18.60;57.99
4012;BME280;2020;48.682;9.024;2023-06-26T01:24:44;96410.75;;;18.77;57.92
4012;BME280;2020;48.682;9.024;2023-06-26T01:27:10;96416.66;;;18.65;58.26
4012;BME280;2020;48.682;9.024;2023-06-26T01:29:37;96407.38;;;18.63;58.82
4012;BME280;2020;48.682;9.024;2023-06-26T01:32:03;96406.16;;;18.52;59.40
4012;BME280;2020;48.682;9.024;2023-06-26T01:34:29;96405.34;;;18.65;58.19
4012;BME280;2020;48.682;9.024;2023-06-26T01:36:54;96398.81;;;18.67;57.77
4012;BME280;2020;48.682;9.024;2023-06-26T01:39:20;96402.34;;;18.48;59.27
4012;BME280;2020;48.682;9.024;2023-06-26T01:41:45;96396.22;;;18.54;58.66
4012;BME280;2020;48.682;9.024;2023-06-26T01:44:23;96388.78;;;18.37;59.74
4012;BME280;2020;48.682;9.024;2023-06-26T01:47:01;96393.81;;;18.46;59.27
4012;BME280;2020;48.682;9.024;2023-06-26T01:52:21;96395.69;;;18.18;60.48
4012;BME280;2020;48.682;9.024;2023-06-26T01:54:55;96393.66;;;18.27;59.55
4012;BME280;2020;48.682;9.024;2023-06-26T01:57:22;96389.41;;;18.26;59.04
4012;BME280;2020;48.682;9.024;2023-06-26T01:59:48;96385.97;;;18.25;60.10
4012;BME280;2020;48.682;9.024;2023-06-26T02:02:13;96383.34;;;18.19;60.35
4012;BME280;2020;48.682;9.024;2023-06-26T02:04:39;96386.78;;;18.26;59.78
4012;BME280;2020;48.682;9.024;2023-06-26T02:07:05;96390.44;;;18.25;59.99
4012;BME280;2020;48.682;9.024;2023-06-26T02:09:30;96386.78;;;18.26;59.51
4012;BME280;2020;48.682;9.024;2023-06-26T02:11:55;96391.69;;;18.02;60.30
4012;BME280;2020;48.682;9.024;2023-06-26T02:14:20;96383.56;;;17.97;60.59
4012;BME280;2020;48.682;9.024;2023-06-26T02:16:46;96390.06;;;18.01;60.50
4012;BME280;2020;48.682;9.024;2023-06-26T02:19:11;96393.72;;;18.00;59.93
4012;BME280;2020;48.682;9.024;2023-06-26T02:21:36;96394.53;;;18.07;60.37
4012;BME280;2020;48.682;9.024;2023-06-26T02:24:04;96396.13;;;18.08;60.66
4012;BME280;2020;48.682;9.024;2023-06-26T02:26:29;96391.25;;;17.98;60.67
4012;BME280;2020;48.682;9.024;2023-06-26T02:28:55;96392.91;;;18.06;59.97
4012;BME280;2020;48.682;9.024;2023-06-26T02:31:20;96391.69;;;18.02;60.35
4012;BME280;2020;48.682;9.024;2023-06-26T02:33:45;96395.31;;;17.94;60.67
4012;BME280;2020;48.682;9.024;2023-06-26T02:36:10;96392.06;;;17.79;61.71
4012;BME280;2020;48.682;9.024;2023-06-26T02:38:36;96392.06;;;17.86;61.21
4012;BME280;2020;48.682;9.024;2023-06-26T02:41:01;96393.66;;;17.87;60.85
4012;BME280;2020;48.682;9.024;2023-06-26T02:43:26;96390.03;;;17.88;60.57
4012;BME280;2020;48.682;9.024;2023-06-26T02:45:52;96391.03;;;17.73;61.67
4012;BME280;2020;48.682;9.024;2023-06-26T02:48:17;96388.81;;;17.70;61.73
4012;BME280;2020;48.682;9.024;2023-06-26T02:50:42;96391.25;;;17.65;62.18
4012;BME280;2020;48.682;9.024;2023-06-26T02:53:11;96389.44;;;17.59;61.88
4012;BME280;2020;48.682;9.024;2023-06-26T02:55:36;96388.81;;;17.57;62.14
4012;BME280;2020;48.682;9.024;2023-06-26T02:58:01;96393.06;;;17.37;62.94
4012;BME280;2020;48.682;9.024;2023-06-26T03:00:27;96396.50;;;17.38;62.80
4012;BME280;2020;48.682;9.024;2023-06-26T03:02:55;96392.88;;;17.46;62.36
4012;BME280;2020;48.682;9.024;2023-06-26T03:05:20;96392.47;;;17.56;62.31
4012;BME280;2020;48.682;9.024;2023-06-26T03:07:45;96400.16;;;17.57;61.50
4012;BME280;2020;48.682;9.024;2023-06-26T03:10:10;96385.56;;;17.54;62.23
4012;BME280;2020;48.682;9.024;2023-06-26T03:12:36;96390.44;;;17.58;61.87
4012;BME280;2020;48.682;9.024;2023-06-26T03:15:01;96397.31;;;17.59;60.69
4012;BME280;2020;48.682;9.024;2023-06-26T03:17:26;96387.81;;;17.64;60.30
4012;BME280;2020;48.682;9.024;2023-06-26T03:19:51;96391.03;;;17.73;59.63
4012;BME280;2020;48.682;9.024;2023-06-26T03:22:16;96393.28;;;17.76;60.32
4012;BME280;2020;48.682;9.024;2023-06-26T03:24:43;96393.28;;;17.69;60.59
4012;BME280;2020;48.682;9.024;2023-06-26T03:27:09;96388.63;;;17.65;60.67
4012;BME280;2020;48.682;9.024;2023-06-26T03:29:35;96399.34;;;17.63;59.64
4012;BME280;2020;48.682;9.024;2023-06-26T03:32:00;96386.78;;;17.72;59.26
4012;BME280;2020;48.682;9.024;2023-06-26T03:34:25;96392.47;;;17.69;60.05
4012;BME280;2020;48.682;9.024;2023-06-26T03:36:50;96395.09;;;17.69;60.17
4012;BME280;2020;48.682;9.024;2023-06-26T03:39:16;96389.22;;;17.67;59.55
4012;BME280;2020;48.682;9.024;2023-06-26T03:41:41;96392.06;;;17.59;60.56
4012;BME280;2020;48.682;9.024;2023-06-26T03:44:06;96389.63;;;17.64;60.05
4012;BME280;2020;48.682;9.024;2023-06-26T03:46:31;96400.56;;;17.61;61.38
4012;BME280;2020;48.682;9.024;2023-06-26T03:48:57;96397.72;;;17.69;61.43
4012;BME280;2020;48.682;9.024;2023-06-26T03:51:22;96400.75;;;17.52;62.00
4012;BME280;2020;48.682;9.024;2023-06-26T03:53:47;96402.16;;;17.48;62.24
4012;BME280;2020;48.682;9.024;2023-06-26T03:56:13;96398.72;;;17.41;63.56
4012;BME280;2020;48.682;9.024;2023-06-26T03:58:39;96399.72;;;17.40;62.29
4012;BME280;2020;48.682;9.024;2023-06-26T04:01:04;96398.09;;;17.39;64.11
4012;BME280;2020;48.682;9.024;2023-06-26T04:03:29;96394.06;;;17.43;63.64
4012;BME280;2020;48.682;9.024;2023-06-26T04:05:55;96398.94;;;17.46;62.28
4012;BME280;2020;48.682;9.024;2023-06-26T04:08:20;96397.72;;;17.35;63.84
4012;BME280;2020;48.682;9.024;2023-06-26T04:10:46;96396.50;;;17.51;63.45
4012;BME280;2020;48.682;9.024;2023-06-26T04:13:13;96396.50;;;17.51;62.72
4012;BME280;2020;48.682;9.024;2023-06-26T04:15:39;96399.34;;;17.50;63.32
4012;BME280;2020;48.682;9.024;2023-06-26T04:18:04;96404.22;;;17.53;62.95
4012;BME280;2020;48.682;9.024;2023-06-26T04:20:29;96404.59;;;17.43;63.35
4012;BME280;2020;48.682;9.024;2023-06-26T04:22:55;96401.38;;;17.48;63.44
4012;BME280;2020;48.682;9.024;2023-06-26T04:25:20;96403.78;;;17.49;62.38
4012;BME280;2020;48.682;9.024;2023-06-26T04:27:45;96396.91;;;17.48;63.71
4012;BME280;2020;48.682;9.024;2023-06-26T04:30:11;96402.19;;;17.62;63.22
4012;BME280;2020;48.682;9.024;2023-06-26T04:32:37;96407.66;;;17.67;60.64
4012;BME280;2020;48.682;9.024;2023-06-26T04:35:02;96410.06;;;17.75;63.30
4012;BME280;2020;48.682;9.024;2023-06-26T04:37:28;96401.38;;;17.81;60.88
4012;BME280;2020;48.682;9.024;2023-06-26T04:39:53;96404.63;;;17.77;63.04
4012;BME280;2020;48.682;9.024;2023-06-26T04:42:18;96396.72;;;17.83;62.82
4012;BME280;2020;48.682;9.024;2023-06-26T04:44:46;96397.75;;;17.96;60.34
4012;BME280;2020;48.682;9.024;2023-06-26T04:47:11;96400.59;;;18.01;62.89
4012;BME280;2020;48.682;9.024;2023-06-26T04:49:39;96398.16;;;18.06;62.55
4012;BME280;2020;48.682;9.024;2023-06-26T04:52:08;96399.16;;;18.12;63.57
4012;BME280;2020;48.682;9.024;2023-06-26T04:54:33;96401.41;;;18.08;64.14
4012;BME280;2020;48.682;9.024;2023-06-26T04:56:58;96399.16;;;18.19;62.70
4012;BME280;2020;48.682;9.024;2023-06-26T04:59:24;96398.53;;;18.30;60.04
4012;BME280;2020;48.682;9.024;2023-06-26T05:01:50;96397.31;;;18.26;62.11
4012;BME280;2020;48.682;9.024;2023-06-26T05:04:15;96394.06;;;18.37;60.21
4012;BME280;2020;48.682;9.024;2023-06-26T05:06:41;96399.66;;;18.54;60.57
4012;BME280;2020;48.682;9.024;2023-06-26T05:09:07;96399.66;;;18.61;59.96
4012;BME280;2020;48.682;9.024;2023-06-26T05:11:32;96389.94;;;18.62;59.01
4012;BME280;2020;48.682;9.024;2023-06-26T05:13:57;96401.22;;;18.76;58.71
4012;BME280;2020;48.682;9.024;2023-06-26T05:16:23;96397.97;;;18.80;57.98
4012;BME280;2020;48.682;9.024;2023-06-26T05:18:48;96394.03;;;18.96;56.98
4012;BME280;2020;48.682;9.024;2023-06-26T05:21:13;96396.97;;;19.20;57.08
4012;BME280;2020;48.682;9.024;2023-06-26T05:23:40;96401.06;;;19.16;56.02
4012;BME280;2020;48.682;9.024;2023-06-26T05:26:06;96403.41;;;19.31;56.78
4012;BME280;2020;48.682;9.024;2023-06-26T05:28:32;96404.56;;;19.42;55.03
4012;BME280;2020;48.682;9.024;2023-06-26T05:30:58;96400.16;;;19.61;56.42
4012;BME280;2020;48.682;9.024;2023-06-26T05:33:25;96396.31;;;19.64;56.76
4012;BME280;2020;48.682;9.024;2023-06-26T05:35:52;96400.22;;;19.80;56.00
4012;BME280;2020;48.682;9.024;2023-06-26T05:38:18;96399.50;;;19.98;55.05
4012;BME280;2020;48.682;9.024;2023-06-26T05:40:43;96396.88;;;20.16;54.77
4012;BME280;2020;48.682;9.024;2023-06-26T05:43:09;96401.88;;;20.25;54.26
4012;BME280;2020;48.682;9.024;2023-06-26T05:45:34;96400.66;;;20.46;54.00
4012;BME280;2020;48.682;9.024;2023-06-26T05:48:00;96399.72;;;20.59;53.67
4012;BME280;2020;48.682;9.024;2023-06-26T05:50:26;96398.84;;;20.65;53.28
4012;BME280;2020;48.682;9.024;2023-06-26T05:52:51;96400.47;;;20.85;53.17
4012;BME280;2020;48.682;9.024;2023-06-26T05:55:17;96392.50;;;21.03;52.87
4012;BME280;2020;48.682;9.024;2023-06-26T05:57:43;96390.31;;;21.12;51.92
4012;BME280;2020;48.682;9.024;2023-06-26T06:00:11;96395.47;;;21.26;51.72
4012;BME280;2020;48.682;9.024;2023-06-26T06:02:37;96391.22;;;21.37;51.02
4012;BME280;2020;48.682;9.024;2023-06-26T06:05:03;96390.44;;;21.48;51.26
4012;BME280;2020;48.682;9.024;2023-06-26T06:07:28;96390.09;;;21.56;50.90
4012;BME280;2020;48.682;9.024;2023-06-26T06:09:54;96390.38;;;21.67;50.71
4012;BME280;2020;48.682;9.024;2023-06-26T06:12:20;96393.66;;;21.93;50.28
4012;BME280;2020;48.682;9.024;2023-06-26T06:14:45;96389.16;;;22.05;49.98
4012;BME280;2020;48.682;9.024;2023-06-26T06:17:10;96392.63;;;22.17;49.40
4012;BME280;2020;48.682;9.024;2023-06-26T06:19:36;96392.47;;;22.36;49.58
4012;BME280;2020;48.682;9.024;2023-06-26T06:22:01;96396.84;;;22.42;49.32
4012;BME280;2020;48.682;9.024;2023-06-26T06:24:26;96390.97;;;22.64;48.06
4012;BME280;2020;48.682;9.024;2023-06-26T06:26:51;96393.59;;;22.76;47.31
4012;BME280;2020;48.682;9.024;2023-06-26T06:29:17;96405.63;;;22.96;47.85
4012;BME280;2020;48.682;9.024;2023-06-26T06:31:44;96393.94;;;23.08;47.28
4012;BME280;2020;48.682;9.024;2023-06-26T06:34:09;96397.34;;;23.21;47.19
4012;BME280;2020;48.682;9.024;2023-06-26T06:36:34;96396.94;;;23.41;47.07
4012;BME280;2020;48.682;9.024;2023-06-26T06:38:59;96394.88;;;23.60;46.89
4012;BME280;2020;48.682;9.024;2023-06-26T06:41:25;96398.25;;;23.73;46.41
4012;BME280;2020;48.682;9.024;2023-06-26T06:43:50;96390.78;;;23.87;46.22
4012;BME280;2020;48.682;9.024;2023-06-26T06:46:15;96392.31;;;24.00;46.12
4012;BME280;2020;48.682;9.024;2023-06-26T06:48:40;96390.00;;;24.26;45.45
4012;BME280;2020;48.682;9.024;2023-06-26T06:51:06;96395.94;;;24.33;45.06
4012;BME280;2020;48.682;9.024;2023-06-26T06:53:31;96391.53;;;24.61;44.04
4012;BME280;2020;48.682;9.024;2023-06-26T06:55:56;96398.59;;;24.72;43.02
4012;BME280;2020;48.682;9.024;2023-06-26T06:58:22;96394.53;;;24.87;43.52
4012;BME280;2020;48.682;9.024;2023-06-26T07:00:48;96395.75;;;25.01;43.41
4012;BME280;2020;48.682;9.024;2023-06-26T07:03:14;96392.19;;;25.18;43.17
4012;BME280;2020;48.682;9.024;2023-06-26T07:05:41;96391.84;;;25.36;42.94
4012;BME280;2020;48.682;9.024;2023-06-26T07:08:06;96393.09;;;25.29;41.97
4012;BME280;2020;48.682;9.024;2023-06-26T07:10:31;96391.44;;;25.50;42.33
4012;BME280;2020;48.682;9.024;2023-06-26T07:12:57;96390.63;;;25.82;41.46
4012;BME280;2020;48.682;9.024;2023-06-26T07:15:22;96388.47;;;25.79;41.76
4012;BME280;2020;48.682;9.024;2023-06-26T07:17:47;96394.19;;;25.93;41.51
4012;BME280;2020;48.682;9.024;2023-06-26T07:20:13;96388.50;;;26.17;41.51
4012;BME280;2020;48.682;9.024;2023-06-26T07:22:41;96383.53;;;26.31;41.36
4012;BME280;2020;48.682;9.024;2023-06-26T07:25:07;96385.75;;;26.49;40.65
4012;BME280;2020;48.682;9.024;2023-06-26T07:27:35;96396.50;;;26.70;40.59
4012;BME280;2020;48.682;9.024;2023-06-26T07:30:00;96393.34;;;26.78;39.97
4012;BME280;2020;48.682;9.024;2023-06-26T07:32:25;96393.94;;;26.96;40.03
4012;BME280;2020;48.682;9.024;2023-06-26T07:34:50;96398.78;;;27.09;39.69
4012;BME280;2020;48.682;9.024;2023-06-26T07:37:16;96396.13;;;27.14;40.01
4012;BME280;2020;48.682;9.024;2023-06-26T07:39:41;96398.31;;;27.28;39.93
4012;BME280;2020;48.682;9.024;2023-06-26T07:42:06;96402.63;;;27.44;39.54
4012;BME280;2020;48.682;9.024;2023-06-26T07:44:31;96400.50;;;27.67;39.15
4012;BME280;2020;48.682;9.024;2023-06-26T07:46:57;96397.31;;;27.70;39.15
4012;BME280;2020;48.682;9.024;2023-06-26T07:49:22;96398.38;;;27.80;38.65
4012;BME280;2020;48.682;9.024;2023-06-26T07:51:48;96397.28;;;27.96;38.48
4012;BME280;2020;48.682;9.024;2023-06-26T07:54:13;96393.00;;;28.06;37.66
4012;BME280;2020;48.682;9.024;2023-06-26T07:57:01;96395.09;;;28.35;37.39
4012;BME280;2020;48.682;9.024;2023-06-26T07:59:29;96390.25;;;28.42;36.69
4012;BME280;2020;48.682;9.024;2023-06-26T08:01:55;96383.31;;;28.51;36.56
4012;BME280;2020;48.682;9.024;2023-06-26T08:04:23;96394.31;;;28.34;37.10
4012;BME280;2020;48.682;9.024;2023-06-26T08:06:50;96396.66;;;28.46;36.39
4012;BME280;2020;48.682;9.024;2023-06-26T08:09:16;96383.19;;;28.82;36.08
4012;BME280;2020;48.682;9.024;2023-06-26T08:11:42;96387.41;;;28.99;35.78
4012;BME280;2020;48.682;9.024;2023-06-26T08:14:07;96384.63;;;29.14;34.91
4012;BME280;2020;48.682;9.024;2023-06-26T08:16:33;96380.88;;;29.15;35.09
4012;BME280;2020;48.682;9.024;2023-06-26T08:18:58;96382.41;;;29.27;35.15
4012;BME280;2020;48.682;9.024;2023-06-26T08:21:23;96375.38;;;29.36;35.59
4012;BME280;2020;48.682;9.024;2023-06-26T08:23:49;96377.47;;;29.44;34.19
4012;BME280;2020;48.682;9.024;2023-06-26T08:26:14;96373.50;;;29.71;33.82
4012;BME280;2020;48.682;9.024;2023-06-26T08:28:39;96366.28;;;29.72;34.04
4012;BME280;2020;48.682;9.024;2023-06-26T08:31:04;96376.03;;;29.92;33.93
4012;BME280;2020;48.682;9.024;2023-06-26T08:33:30;96374.16;;;30.22;33.63
4012;BME280;2020;48.682;9.024;2023-06-26T08:35:55;96371.16;;;30.24;32.41
4012;BME280;2020;48.682;9.024;2023-06-26T08:38:20;96362.28;;;30.53;32.00
4012;BME280;2020;48.682;9.024;2023-06-26T08:40:46;96373.59;;;30.49;32.75
4012;BME280;2020;48.682;9.024;2023-06-26T08:43:12;96369.69;;;30.37;31.69
4012;BME280;2020;48.682;9.024;2023-06-26T08:45:37;96363.41;;;30.46;31.13
4012;BME280;2020;48.682;9.024;2023-06-26T08:48:03;96367.19;;;30.70;31.24
4012;BME280;2020;48.682;9.024;2023-06-26T08:50:34;96365.31;;;30.89;30.88
4012;BME280;2020;48.682;9.024;2023-06-26T08:53:08;96365.31;;;30.89;31.84
4012;BME280;2020;48.682;9.024;2023-06-26T08:55:38;96368.50;;;30.91;31.23
4012;BME280;2020;48.682;9.024;2023-06-26T08:58:05;96368.50;;;30.91;30.44
4012;BME280;2020;48.682;9.024;2023-06-26T09:00:31;96363.50;;;31.04;29.84
4012;BME280;2020;48.682;9.024;2023-06-26T09:02:56;96373.34;;;31.33;30.02
4012;BME280;2020;48.682;9.024;2023-06-26T09:05:22;96370.56;;;31.38;29.72
4012;BME280;2020;48.682;9.024;2023-06-26T09:07:47;96376.22;;;31.56;29.73
4012;BME280;2020;48.682;9.024;2023-06-26T09:10:12;96374.59;;;31.21;29.82
4012;BME280;2020;48.682;9.024;2023-06-26T09:12:38;96374.78;;;31.44;29.39
4012;BME280;2020;48.682;9.024;2023-06-26T09:15:05;96370.84;;;31.56;28.61
4012;BME280;2020;48.682;9.024;2023-06-26T09:17:33;96372.22;;;31.53;29.01
4012;BME280;2020;48.682;9.024;2023-06-26T09:20:03;96369.56;;;31.67;29.22
4012;BME280;2020;48.682;9.024;2023-06-26T09:22:32;96362.97;;;31.78;29.19
4012;BME280;2020;48.682;9.024;2023-06-26T09:24:58;96358.22;;;31.89;28.21
4012;BME280;2020;48.682;9.024;2023-06-26T09:27:23;96361.50;;;32.00;28.40
4012;BME280;2020;48.682;9.024;2023-06-26T09:29:49;96363.81;;;32.07;28.71
4012;BME280;2020;48.682;9.024;2023-06-26T09:32:15;96361.94;;;31.74;28.82
4012;BME280;2020;48.682;9.024;2023-06-26T09:34:41;96365.03;;;31.10;29.23
4012;BME280;2020;48.682;9.024;2023-06-26T09:37:07;96365.63;;;31.45;29.42
4012;BME280;2020;48.682;9.024;2023-06-26T09:39:33;96362.66;;;31.80;28.59
4012;BME280;2020;48.682;9.024;2023-06-26T09:41:58;96353.13;;;31.16;29.35
4012;BME280;2020;48.682;9.024;2023-06-26T09:44:24;96362.66;;;31.28;29.23
4012;BME280;2020;48.682;9.024;2023-06-26T09:46:49;96366.28;;;31.37;29.46
4012;BME280;2020;48.682;9.024;2023-06-26T09:49:15;96363.97;;;31.30;29.81
4012;BME280;2020;48.682;9.024;2023-06-26T09:51:41;96359.78;;;31.00;30.43
4012;BME280;2020;48.682;9.024;2023-06-26T09:54:08;96353.13;;;31.16;29.98
4012;BME280;2020;48.682;9.024;2023-06-26T09:56:34;96352.69;;;31.47;29.34
4012;BME280;2020;48.682;9.024;2023-06-26T09:59:02;96355.53;;;31.37;28.88
4012;BME280;2020;48.682;9.024;2023-06-26T10:01:27;96355.88;;;31.11;29.46
4012;BME280;2020;48.682;9.024;2023-06-26T10:03:54;96356.03;;;31.01;30.17
4012;BME280;2020;48.682;9.024;2023-06-26T10:06:22;96360.16;;;30.93;29.47
4012;BME280;2020;48.682;9.024;2023-06-26T10:08:50;96349.44;;;30.93;29.91
4012;BME280;2020;48.682;9.024;2023-06-26T10:11:16;96353.59;;;31.24;29.77
4012;BME280;2020;48.682;9.024;2023-06-26T10:13:45;96357.91;;;31.58;29.73
4012;BME280;2020;48.682;9.024;2023-06-26T10:16:13;96361.69;;;31.57;29.94
4012;BME280;2020;48.682;9.024;2023-06-26T10:18:43;96353.41;;;32.00;29.86
4012;BME280;2020;48.682;9.024;2023-06-26T10:21:09;96368.09;;;32.22;28.73
4012;BME280;2020;48.682;9.024;2023-06-26T10:23:39;96359.03;;;32.46;28.72
4012;BME280;2020;48.682;9.024;2023-06-26T10:26:06;96349.84;;;32.19;28.47
4012;BME280;2020;48.682;9.024;2023-06-26T10:28:34;96366.44;;;32.54;28.84
4012;BME280;2020;48.682;9.024;2023-06-26T10:31:01;96363.25;;;32.52;30.02
4012;BME280;2020;48.682;9.024;2023-06-26T10:33:28;96363.94;;;32.44;30.40
4012;BME280;2020;48.682;9.024;2023-06-26T10:36:12;96379.25;;;31.68;32.00
4012;BME280;2020;48.682;9.024;2023-06-26T10:39:12;96382.28;;;31.80;32.63
4012;BME280;2020;48.682;9.024;2023-06-26T10:41:40;96388.97;;;32.30;32.51
4012;BME280;2020;48.682;9.024;2023-06-26T10:44:15;96391.56;;;32.35;32.15
4012;BME280;2020;48.682;9.024;2023-06-26T10:46:55;96398.66;;;31.84;32.80
4012;BME280;2020;48.682;9.024;2023-06-26T10:49:25;96405.81;;;31.89;33.02
4012;BME280;2020;48.682;9.024;2023-06-26T10:51:51;96404.47;;;32.05;32.76
4012;BME280;2020;48.682;9.024;2023-06-26T10:54:18;96400.59;;;32.12;32.57
4012;BME280;2020;48.682;9.024;2023-06-26T10:56:49;96412.59;;;31.86;32.60
4012;BME280;2020;48.682;9.024;2023-06-26T10:59:19;96406.81;;;31.93;32.88
4012;BME280;2020;48.682;9.024;2023-06-26T11:02:02;96406.78;;;32.26;33.05
4012;BME280;2020;48.682;9.024;2023-06-26T11:04:45;96412.84;;;32.18;32.16
4012;BME280;2020;48.682;9.024;2023-06-26T11:07:20;96405.13;;;32.30;31.98
4012;BME280;2020;48.682;9.024;2023-06-26T11:09:59;96400.59;;;32.12;32.53
4012;BME280;2020;48.682;9.024;2023-06-26T11:12:41;96399.06;;;32.05;32.82
4012;BME280;2020;48.682;9.024;2023-06-26T11:15:26;96398.44;;;31.80;32.45
4012;BME280;2020;48.682;9.024;2023-06-26T11:17:51;96414.22;;;32.01;32.48
4012;BME280;2020;48.682;9.024;2023-06-26T11:20:17;96402.03;;;31.90;32.14
4012;BME280;2020;48.682;9.024;2023-06-26T11:22:43;96410.03;;;31.95;33.06
4012;BME280;2020;48.682;9.024;2023-06-26T11:25:09;96416.41;;;32.46;31.70
4012;BME280;2020;48.682;9.024;2023-06-26T11:30:07;96411.31;;;32.59;31.22
4012;BME280;2020;48.682;9.024;2023-06-26T11:32:33;96405.16;;;32.58;31.46
4012;BME280;2020;48.682;9.024;2023-06-26T11:34:59;96409.72;;;32.72;32.01
4012;BME280;2020;48.682;9.024;2023-06-26T11:39:50;96425.06;;;32.99;30.50
4012;BME280;2020;48.682;9.024;2023-06-26T11:42:16;96430.56;;;32.80;31.19
4012;BME280;2020;48.682;9.024;2023-06-26T11:44:42;96415.13;;;32.72;31.65
4012;BME280;2020;48.682;9.024;2023-06-26T11:47:20;96414.31;;;32.85;32.10
4012;BME280;2020;48.682;9.024;2023-06-26T11:49:47;96430.06;;;33.06;32.42
4012;BME280;2020;48.682;9.024;2023-06-26T11:52:14;96414.50;;;32.75;32.19
4012;BME280;2020;48.682;9.024;2023-06-26T11:54:42;96417.22;;;32.75;32.95
4012;BME280;2020;48.682;9.024;2023-06-26T11:57:07;96420.91;;;33.30;32.19
4012;BME280;2020;48.682;9.024;2023-06-26T11:59:35;96421.63;;;33.21;31.60
4012;BME280;2020;48.682;9.024;2023-06-26T12:02:04;96420.63;;;33.31;31.94
4012;BME280;2020;48.682;9.024;2023-06-26T12:04:30;96429.00;;;33.30;31.13
4012;BME280;2020;48.682;9.024;2023-06-26T12:06:55;96431.22;;;33.28;31.24
4012;BME280;2020;48.682;9.024;2023-06-26T12:09:23;96429.47;;;33.09;31.78
4012;BME280;2020;48.682;9.024;2023-06-26T12:11:52;96423.09;;;32.77;32.05
4012;BME280;2020;48.682;9.024;2023-06-26T12:14:19;96421.09;;;32.96;32.39
4012;BME280;2020;48.682;9.024;2023-06-26T12:16:45;96421.66;;;33.07;32.46
4012;BME280;2020;48.682;9.024;2023-06-26T12:19:11;96429.28;;;32.91;32.61
4012;BME280;2020;48.682;9.024;2023-06-26T12:24:01;96435.84;;;32.85;32.81
4012;BME280;2020;48.682;9.024;2023-06-26T12:26:27;96427.66;;;32.76;32.84
4012;BME280;2020;48.682;9.024;2023-06-26T12:29:04;96425.66;;;33.10;32.94
4012;BME280;2020;48.682;9.024;2023-06-26T12:31:30;96424.66;;;33.06;33.08
4012;BME280;2020;48.682;9.024;2023-06-26T12:33:56;96429.13;;;33.24;32.83
4012;BME280;2020;48.682;9.024;2023-06-26T12:36:21;96421.03;;;33.24;33.28
4012;BME280;2020;48.682;9.024;2023-06-26T12:38:48;96424.06;;;33.09;32.49
4012;BME280;2020;48.682;9.024;2023-06-26T12:41:15;96425.28;;;32.75;34.12
4012;BME280;2020;48.682;9.024;2023-06-26T12:43:42;96440.63;;;32.74;33.16
4012;BME280;2020;48.682;9.024;2023-06-26T12:46:08;96431.75;;;32.46;33.12
4012;BME280;2020;48.682;9.024;2023-06-26T12:48:41;96425.28;;;32.75;32.97
4012;BME280;2020;48.682;9.024;2023-06-26T12:51:15;96425.06;;;32.85;33.45
4012;BME280;2020;48.682;9.024;2023-06-26T12:53:41;96418.47;;;32.35;34.86
4012;BME280;2020;48.682;9.024;2023-06-26T12:56:07;96415.88;;;32.30;35.18
4012;BME280;2020;48.682;9.024;2023-06-26T12:58:34;96417.84;;;32.24;35.03
4012;BME280;2020;48.682;9.024;2023-06-26T13:00:59;96417.63;;;32.21;35.02
4012;BME280;2020;48.682;9.024;2023-06-26T13:03:24;96428.19;;;32.03;34.87
4012;BME280;2020;48.682;9.024;2023-06-26T13:05:49;96427.56;;;31.92;35.21
4012;BME280;2020;48.682;9.024;2023-06-26T13:08:15;96425.81;;;31.63;35.46
4012;BME280;2020;48.682;9.024;2023-06-26T13:10:42;96434.56;;;31.74;35.63
4012;BME280;2020;48.682;9.024;2023-06-26T13:13:07;96425.56;;;32.31;34.65
4012;BME280;2020;48.682;9.024;2023-06-26T13:15:33;96433.44;;;32.42;34.27
4012;BME280;2020;48.682;9.024;2023-06-26T13:17:59;96433.38;;;32.14;34.24
4012;BME280;2020;48.682;9.024;2023-06-26T13:20:24;96411.56;;;32.29;33.76
4012;BME280;2020;48.682;9.024;2023-06-26T13:22:49;96424.28;;;32.43;33.53
4012;BME280;2020;48.682;9.024;2023-06-26T13:25:15;96424.91;;;32.67;33.37
4012;BME280;2020;48.682;9.024;2023-06-26T13:27:40;96426.69;;;32.58;33.12
4012;BME280;2020;48.682;9.024;2023-06-26T13:30:06;96423.66;;;32.46;33.30